Time;durP1;ratioP1;P1;durP2;ratioP2;P2;SDS_P1;SDS_P2;PMS_P1;PMS_P2;Temp;Humidity;BMP_temperature;BMP_pressure;BME280_temperature;BME280_humidity;BME280_pressure;Samples;Min_cycle;Max_cycle;Signal;HPM_P1;HPM_P2
2023/03/28 00:00:46;;;;;;;4.50;1.20;;;3.70;99.90;;;;;;5055248;28;20502;-71
2023/03/28 00:03:17;;;;;;;20.70;1.30;;;3.70;99.90;;;;;;5050560;28;20422;-71
2023/03/28 00:05:47;;;;;;;1.37;1.27;;;3.60;99.90;;;;;;5050199;28;20413;-73
2023/03/28 00:08:15;;;;;;;2.10;1.20;;;3.60;99.90;;;;;;5050549;28;20446;-72
2023/03/28 00:10:42;;;;;;;5.83;1.60;;;3.60;99.90;;;;;;5050487;28;20534;-72
2023/03/28 00:13:12;;;;;;;4.20;1.30;;;3.70;99.90;;;;;;5050413;28;20920;-72
2023/03/28 00:15:40;;;;;;;1.10;1.00;;;3.60;99.90;;;;;;5050352;28;20419;-72
2023/03/28 00:18:10;;;;;;;1.53;1.40;;;3.60;99.90;;;;;;5050275;28;20532;-72
2023/03/28 00:20:39;;;;;;;1.10;1.00;;;3.50;99.90;;;;;;5049955;28;20436;-71
2023/03/28 00:23:06;;;;;;;3.67;1.50;;;3.40;99.90;;;;;;5050496;28;20473;-72
2023/03/28 00:25:34;;;;;;;1.17;1.07;;;3.40;99.90;;;;;;5050333;28;20973;-72
2023/03/28 00:28:02;;;;;;;2.33;1.60;;;3.40;99.90;;;;;;5050367;28;20446;-72
2023/03/28 00:30:30;;;;;;;12.40;1.80;;;3.30;99.90;;;;;;5050100;28;20448;-72
2023/03/28 00:32:59;;;;;;;1.63;1.53;;;3.30;99.90;;;;;;5050331;28;20471;-72
2023/03/28 00:35:26;;;;;;;1.00;0.90;;;3.40;99.90;;;;;;5050469;28;20829;-72
2023/03/28 00:37:57;;;;;;;1.10;0.93;;;3.40;99.90;;;;;;5049984;28;20477;-72
2023/03/28 00:40:25;;;;;;;2.70;1.80;;;3.40;99.90;;;;;;5049728;28;20466;-72
2023/03/28 00:42:53;;;;;;;4.97;1.70;;;3.40;99.90;;;;;;5050166;28;20778;-71
2023/03/28 00:45:22;;;;;;;1.93;1.30;;;3.40;99.90;;;;;;5058820;28;20479;-73
2023/03/28 00:47:53;;;;;;;2.33;1.37;;;3.40;99.90;;;;;;5059348;28;20496;-72
2023/03/28 00:50:26;;;;;;;3.37;1.83;;;3.40;99.90;;;;;;5054399;28;20441;-72
2023/03/28 00:52:57;;;;;;;1.20;1.00;;;3.40;99.90;;;;;;5054420;28;20436;-72
2023/03/28 00:55:29;;;;;;;1.83;1.27;;;3.30;99.90;;;;;;5054005;28;20485;-72
2023/03/28 00:57:56;;;;;;;3.03;1.67;;;3.30;99.90;;;;;;5053642;28;20533;-72
2023/03/28 01:00:24;;;;;;;5.30;1.80;;;3.30;99.90;;;;;;5053712;28;20422;-72
2023/03/28 01:02:57;;;;;;;5.50;3.67;;;3.30;99.90;;;;;;5053906;28;20530;-71
2023/03/28 01:05:27;;;;;;;4.93;1.13;;;3.20;99.90;;;;;;5053789;28;20463;-72
2023/03/28 01:07:58;;;;;;;3.47;1.53;;;3.20;99.90;;;;;;5053858;28;20546;-71
2023/03/28 01:10:27;;;;;;;8.23;1.93;;;3.20;99.90;;;;;;5054076;28;20410;-71
2023/03/28 01:12:58;;;;;;;1.70;1.60;;;3.20;99.90;;;;;;5061109;28;20444;-71
2023/03/28 01:15:25;;;;;;;3.40;1.10;;;3.20;99.90;;;;;;5054316;28;20402;-72
2023/03/28 01:17:54;;;;;;;1.13;0.90;;;3.20;99.90;;;;;;5054563;28;20533;-71
2023/03/28 01:21:05;;;;;;;2.40;1.30;;;3.20;99.90;;;;;;5053899;28;20458;-71
2023/03/28 01:24:36;;;;;;;3.43;1.40;;;3.10;99.90;;;;;;5053545;28;20776;-73
2023/03/28 01:27:10;;;;;;;1.57;1.17;;;3.10;99.90;;;;;;5055733;28;20482;-72
2023/03/28 01:30:09;;;;;;;2.50;1.33;;;3.10;99.90;;;;;;5054233;28;20398;-72
2023/03/28 01:33:02;;;;;;;11.93;1.80;;;3.10;99.90;;;;;;5053219;28;20960;-72
2023/03/28 01:35:55;;;;;;;3.20;1.20;;;3.10;99.90;;;;;;5053305;28;20505;-71
2023/03/28 01:38:33;;;;;;;1.60;1.10;;;3.00;99.90;;;;;;5062147;28;20484;-72
2023/03/28 01:41:05;;;;;;;3.67;1.47;;;2.90;99.90;;;;;;5067211;28;20898;-71
2023/03/28 01:43:39;;;;;;;1.43;1.20;;;3.00;99.90;;;;;;5053226;28;20459;-71
2023/03/28 01:46:11;;;;;;;2.60;1.43;;;2.90;99.90;;;;;;5052999;28;20841;-72
2023/03/28 01:48:44;;;;;;;1.83;0.97;;;2.90;99.90;;;;;;5053101;28;20428;-71
2023/03/28 01:51:20;;;;;;;10.07;2.97;;;2.80;99.90;;;;;;5053238;28;20424;-71
2023/03/28 01:53:56;;;;;;;2.10;1.20;;;2.80;99.90;;;;;;5053136;28;20432;-71
2023/03/28 01:56:29;;;;;;;5.33;1.87;;;2.80;99.90;;;;;;5052444;28;20532;-71
2023/03/28 01:59:02;;;;;;;3.87;1.80;;;2.80;99.90;;;;;;5051423;28;20485;-71
2023/03/28 02:01:35;;;;;;;3.83;1.87;;;2.80;99.90;;;;;;5052435;28;20429;-71
2023/03/28 02:04:07;;;;;;;3.10;1.70;;;2.80;99.90;;;;;;5052093;28;20491;-74
2023/03/28 02:06:37;;;;;;;3.63;2.10;;;2.80;99.90;;;;;;5052314;28;20521;-73
2023/03/28 02:09:07;;;;;;;1.20;1.10;;;2.70;99.90;;;;;;5052901;28;20433;-73
2023/03/28 02:11:35;;;;;;;2.33;2.10;;;2.70;99.90;;;;;;5052456;28;20425;-73
2023/03/28 02:14:07;;;;;;;1.57;1.23;;;2.50;99.90;;;;;;5052344;28;20471;-73
2023/03/28 02:16:40;;;;;;;4.40;1.43;;;2.60;99.90;;;;;;5051960;28;20438;-73
2023/03/28 02:19:11;;;;;;;7.37;1.37;;;2.50;99.90;;;;;;5052133;28;20428;-73
2023/03/28 02:21:46;;;;;;;1.97;1.40;;;2.50;99.90;;;;;;5051952;28;20949;-73
2023/03/28 02:24:15;;;;;;;3.10;1.80;;;2.40;99.90;;;;;;5052958;28;20402;-73
2023/03/28 02:26:42;;;;;;;1.27;1.17;;;2.50;99.90;;;;;;5052266;28;20442;-72
2023/03/28 02:29:10;;;;;;;1.43;1.33;;;2.30;99.90;;;;;;5051924;28;20884;-73
2023/03/28 02:31:38;;;;;;;3.60;1.77;;;2.20;99.90;;;;;;5052583;28;20430;-73
2023/03/28 02:34:05;;;;;;;2.47;1.50;;;2.20;99.90;;;;;;5061031;28;20451;-73
2023/03/28 02:36:42;;;;;;;4.63;2.80;;;2.20;99.90;;;;;;5058443;28;20499;-73
2023/03/28 02:39:39;;;;;;;2.73;1.90;;;2.20;99.90;;;;;;5052009;28;20433;-73
2023/03/28 02:42:38;;;;;;;3.67;1.70;;;2.30;99.90;;;;;;5050561;28;20443;-73
2023/03/28 02:45:34;;;;;;;2.53;1.60;;;2.30;99.90;;;;;;5038891;28;20529;-73
2023/03/28 02:48:11;;;;;;;1.73;1.40;;;2.30;99.90;;;;;;5036064;28;20919;-73
2023/03/28 02:50:45;;;;;;;1.60;1.50;;;2.20;99.90;;;;;;5051791;28;20501;-73
2023/03/28 02:53:26;;;;;;;3.53;1.93;;;2.30;99.90;;;;;;5052326;28;20402;-72
2023/03/28 02:55:58;;;;;;;1.20;1.10;;;2.20;99.90;;;;;;5052101;28;20428;-73
2023/03/28 02:58:33;;;;;;;5.00;1.87;;;2.00;99.90;;;;;;5051815;28;20409;-73
2023/03/28 03:01:01;;;;;;;4.60;1.63;;;2.00;99.90;;;;;;5052633;28;20427;-73
2023/03/28 03:03:28;;;;;;;1.57;1.47;;;2.20;99.90;;;;;;5054061;28;20973;-73
2023/03/28 03:05:56;;;;;;;4.03;2.33;;;2.10;99.90;;;;;;5051361;28;20941;-73
2023/03/28 03:08:23;;;;;;;3.83;1.83;;;2.10;99.90;;;;;;5051307;28;20757;-73
2023/03/28 03:10:50;;;;;;;2.27;2.07;;;2.20;99.90;;;;;;5051905;28;20448;-73
2023/03/28 03:13:19;;;;;;;9.83;1.60;;;2.20;99.90;;;;;;5051543;28;20829;-72
2023/03/28 03:15:46;;;;;;;2.47;1.30;;;2.20;99.90;;;;;;5051184;28;20467;-73
2023/03/28 03:18:13;;;;;;;3.80;1.90;;;2.20;99.90;;;;;;5050966;28;20468;-73
2023/03/28 03:20:44;;;;;;;2.40;1.53;;;2.20;99.90;;;;;;5051024;28;20508;-73
2023/03/28 03:23:14;;;;;;;3.73;2.10;;;2.00;99.90;;;;;;5051418;28;20439;-73
2023/03/28 03:25:42;;;;;;;2.47;1.97;;;2.00;99.90;;;;;;5050977;28;20464;-72
2023/03/28 03:28:09;;;;;;;3.60;2.27;;;2.10;99.90;;;;;;5059211;28;20471;-73
2023/03/28 03:30:38;;;;;;;5.57;2.10;;;2.00;99.90;;;;;;5061892;28;20414;-73
2023/03/28 03:33:05;;;;;;;3.37;2.40;;;2.00;99.90;;;;;;5050965;28;20503;-73
2023/03/28 03:35:33;;;;;;;5.00;1.90;;;2.00;99.90;;;;;;5050860;28;21041;-73
2023/03/28 03:37:59;;;;;;;8.20;3.97;;;2.00;99.90;;;;;;5050898;28;20438;-72
2023/03/28 03:40:27;;;;;;;2.97;2.60;;;2.00;99.90;;;;;;5050378;28;20864;-73
2023/03/28 03:42:54;;;;;;;2.30;2.10;;;2.10;99.90;;;;;;5050365;28;20990;-73
2023/03/28 03:45:21;;;;;;;2.33;2.13;;;2.10;99.90;;;;;;5050422;28;20462;-72
2023/03/28 03:47:50;;;;;;;3.03;2.63;;;2.10;99.90;;;;;;5050523;28;20442;-73
2023/03/28 03:50:18;;;;;;;5.30;2.27;;;2.20;99.90;;;;;;5050539;28;20475;-73
2023/03/28 03:52:45;;;;;;;3.10;2.90;;;2.10;99.90;;;;;;5050357;28;20434;-73
2023/03/28 03:55:13;;;;;;;4.80;2.33;;;2.10;99.90;;;;;;5050616;28;20445;-73
2023/03/28 03:57:43;;;;;;;7.33;2.70;;;2.10;99.90;;;;;;5048715;28;20463;-73
2023/03/28 04:00:11;;;;;;;3.73;2.30;;;2.20;99.90;;;;;;5050041;28;20868;-73
2023/03/28 04:02:38;;;;;;;3.20;2.40;;;2.10;99.90;;;;;;5050248;28;20434;-73
2023/03/28 04:05:08;;;;;;;5.00;2.37;;;2.10;99.90;;;;;;5050213;28;20454;-73
2023/03/28 04:07:35;;;;;;;2.60;2.30;;;2.10;99.90;;;;;;5050347;28;20464;-73
2023/03/28 04:10:02;;;;;;;2.60;2.40;;;2.20;99.90;;;;;;5050234;28;20508;-73
2023/03/28 04:12:29;;;;;;;6.50;2.20;;;2.20;99.90;;;;;;5050210;28;20486;-73
2023/03/28 04:14:56;;;;;;;3.87;2.50;;;2.10;99.90;;;;;;5050394;28;20463;-73
2023/03/28 04:17:27;;;;;;;18.30;4.90;;;2.10;99.90;;;;;;5050263;28;21025;-72
2023/03/28 04:19:54;;;;;;;27.33;3.33;;;2.10;99.90;;;;;;5050580;28;20460;-73
2023/03/28 04:22:22;;;;;;;2.77;2.50;;;2.10;99.90;;;;;;5058485;28;20426;-73
2023/03/28 04:24:52;;;;;;;2.87;2.60;;;2.10;99.90;;;;;;5063911;28;20501;-72
2023/03/28 04:27:19;;;;;;;6.73;3.90;;;2.10;99.90;;;;;;5055116;28;20467;-73
2023/03/28 04:29:46;;;;;;;2.70;2.47;;;2.10;99.90;;;;;;5057045;28;20944;-73
2023/03/28 04:32:13;;;;;;;2.33;2.13;;;2.20;99.90;;;;;;5054715;28;20426;-73
2023/03/28 04:34:40;;;;;;;2.20;2.00;;;2.20;99.90;;;;;;5054802;28;20426;-73
2023/03/28 04:37:07;;;;;;;9.67;3.20;;;2.30;99.90;;;;;;5055036;28;20577;-73
2023/03/28 04:39:36;;;;;;;6.80;2.60;;;2.20;99.90;;;;;;5056683;28;20455;-73
2023/03/28 04:42:04;;;;;;;4.20;2.80;;;2.10;99.90;;;;;;5054639;28;20511;-72
2023/03/28 04:44:32;;;;;;;8.40;2.87;;;2.10;99.90;;;;;;5054467;28;20951;-73
2023/03/28 04:46:59;;;;;;;15.70;3.23;;;2.10;99.90;;;;;;5054106;28;20491;-72
2023/03/28 04:49:26;;;;;;;6.07;4.57;;;2.20;99.90;;;;;;5054447;28;20425;-73
2023/03/28 04:51:53;;;;;;;5.40;3.77;;;2.00;99.90;;;;;;5054115;28;20428;-73
2023/03/28 04:54:21;;;;;;;4.20;2.90;;;2.00;99.90;;;;;;5053895;28;20826;-73
2023/03/28 04:56:49;;;;;;;4.77;3.17;;;2.10;99.90;;;;;;5053339;28;20467;-73
2023/03/28 04:59:17;;;;;;;4.17;2.70;;;2.10;99.90;;;;;;5053226;28;20546;-73
2023/03/28 05:01:48;;;;;;;9.70;3.17;;;2.10;99.90;;;;;;5053799;28;20447;-73
2023/03/28 05:04:16;;;;;;;1.77;1.67;;;2.10;99.90;;;;;;5053719;28;20452;-72
2023/03/28 05:06:43;;;;;;;6.60;4.70;;;2.10;99.90;;;;;;5053021;28;21084;-73
2023/03/28 05:09:11;;;;;;;6.60;3.53;;;2.10;99.90;;;;;;5034158;28;20482;-73
2023/03/28 05:11:38;;;;;;;4.40;4.00;;;2.10;99.90;;;;;;5053137;28;20451;-73
2023/03/28 05:14:06;;;;;;;2.60;2.30;;;2.10;99.90;;;;;;5053247;28;20528;-73
2023/03/28 05:16:33;;;;;;;12.30;2.47;;;2.20;99.90;;;;;;5057203;28;20475;-73
2023/03/28 05:19:03;;;;;;;1.77;1.63;;;2.20;99.90;;;;;;5065848;28;20430;-73
2023/03/28 05:21:30;;;;;;;2.90;2.40;;;2.10;99.90;;;;;;5054022;28;20753;-73
2023/03/28 05:23:57;;;;;;;5.00;3.60;;;2.10;99.90;;;;;;5053722;28;20534;-73
2023/03/28 05:26:24;;;;;;;7.73;3.57;;;2.10;99.90;;;;;;5053333;28;20833;-73
2023/03/28 05:28:51;;;;;;;10.90;2.47;;;2.20;99.90;;;;;;5053603;28;20422;-73
2023/03/28 05:31:20;;;;;;;6.73;2.70;;;2.10;99.90;;;;;;5053057;28;20445;-73
2023/03/28 05:33:46;;;;;;;9.97;2.80;;;2.20;99.90;;;;;;5052896;28;20481;-73
2023/03/28 05:36:13;;;;;;;7.23;5.47;;;2.30;99.90;;;;;;5053346;28;20454;-73
2023/03/28 05:38:41;;;;;;;2.67;2.47;;;2.50;99.90;;;;;;5052687;28;20475;-73
2023/03/28 05:41:08;;;;;;;4.13;3.40;;;2.40;99.90;;;;;;5053615;28;20940;-73
2023/03/28 05:43:36;;;;;;;5.30;2.60;;;2.40;99.90;;;;;;5051247;28;20434;-73
2023/03/28 05:46:03;;;;;;;5.83;2.77;;;2.50;99.90;;;;;;5052993;28;21006;-72
2023/03/28 05:48:31;;;;;;;2.97;2.77;;;2.40;99.90;;;;;;5053740;28;20505;-72
2023/03/28 05:50:59;;;;;;;11.80;4.00;;;2.30;99.90;;;;;;5052621;28;20459;-72
2023/03/28 05:53:26;;;;;;;4.60;3.13;;;2.20;99.90;;;;;;5052763;28;20414;-72
2023/03/28 05:55:53;;;;;;;6.53;3.10;;;2.20;99.90;;;;;;5057839;28;20502;-72
2023/03/28 05:58:20;;;;;;;7.83;3.60;;;2.20;99.90;;;;;;5052669;28;20490;-72
2023/03/28 06:00:47;;;;;;;3.73;3.30;;;2.40;99.90;;;;;;5052944;28;20539;-73
2023/03/28 06:03:15;;;;;;;7.87;2.93;;;2.40;99.90;;;;;;5053059;28;20450;-72
2023/03/28 06:05:43;;;;;;;7.50;5.17;;;2.40;99.90;;;;;;5052506;28;20471;-72
2023/03/28 06:08:10;;;;;;;4.83;3.20;;;2.60;99.90;;;;;;5053421;28;20467;-71
2023/03/28 06:10:38;;;;;;;12.00;4.37;;;2.80;99.90;;;;;;5053646;28;20426;-71
2023/03/28 06:13:05;;;;;;;4.10;3.73;;;3.10;99.90;;;;;;5064003;28;20513;-71
2023/03/28 06:15:32;;;;;;;10.00;3.63;;;3.20;99.90;;;;;;5053424;28;20472;-71
2023/03/28 06:17:59;;;;;;;7.83;4.63;;;3.40;99.90;;;;;;5054399;28;20450;-71
2023/03/28 06:20:26;;;;;;;8.40;4.23;;;3.70;99.90;;;;;;5052658;28;20534;-71
2023/03/28 06:22:54;;;;;;;12.27;4.83;;;3.70;99.90;;;;;;5052708;28;20479;-71
2023/03/28 06:25:21;;;;;;;5.83;4.87;;;3.50;99.90;;;;;;5051994;28;20439;-71
2023/03/28 06:27:49;;;;;;;5.80;4.23;;;3.50;99.90;;;;;;5052344;28;20464;-72
2023/03/28 06:30:16;;;;;;;23.10;6.33;;;3.50;99.90;;;;;;5052179;28;20911;-71
2023/03/28 06:32:43;;;;;;;61.07;9.80;;;3.50;99.90;;;;;;5052058;28;20429;-71
2023/03/28 06:35:10;;;;;;;6.80;3.77;;;3.40;99.90;;;;;;5052046;28;20547;-72
2023/03/28 06:37:37;;;;;;;12.30;5.40;;;3.30;99.90;;;;;;5051499;28;20943;-72
2023/03/28 06:40:08;;;;;;;8.70;4.40;;;3.50;99.90;;;;;;5051639;28;20550;-72
2023/03/28 06:42:35;;;;;;;9.63;5.40;;;3.80;99.90;;;;;;5052174;28;20406;-72
2023/03/28 06:45:04;;;;;;;3.93;3.63;;;4.00;99.90;;;;;;5051267;28;20851;-72
2023/03/28 06:47:31;;;;;;;6.50;3.77;;;4.40;99.90;;;;;;5051649;28;21039;-72
2023/03/28 06:49:58;;;;;;;6.27;4.30;;;4.80;99.90;;;;;;5051879;28;20963;-72
2023/03/28 06:52:25;;;;;;;5.13;2.97;;;5.30;99.90;;;;;;5051810;28;20497;-71
2023/03/28 06:54:52;;;;;;;8.33;5.10;;;5.60;99.90;;;;;;5051925;28;20513;-72
2023/03/28 06:57:23;;;;;;;6.67;3.33;;;6.20;99.90;;;;;;5051751;28;20877;-71
2023/03/28 06:59:50;;;;;;;6.47;3.50;;;6.50;99.90;;;;;;5051598;28;20452;-72
2023/03/28 07:02:17;;;;;;;13.03;3.50;;;6.90;99.90;;;;;;5052449;28;20834;-71
2023/03/28 07:04:44;;;;;;;8.60;3.47;;;7.30;99.90;;;;;;5053560;28;20414;-71
2023/03/28 07:07:11;;;;;;;3.93;2.60;;;7.60;99.90;;;;;;5066414;28;20485;-71
2023/03/28 07:09:38;;;;;;;5.83;2.67;;;7.80;99.90;;;;;;5055116;28;20517;-71
2023/03/28 07:12:05;;;;;;;4.90;2.63;;;7.90;99.90;;;;;;5052114;28;20530;-71
2023/03/28 07:14:34;;;;;;;6.83;3.83;;;8.30;99.90;;;;;;5051959;28;20422;-71
2023/03/28 07:17:01;;;;;;;4.57;2.87;;;8.20;99.90;;;;;;5052555;28;20442;-72
2023/03/28 07:19:28;;;;;;;3.27;2.83;;;8.30;99.90;;;;;;5051322;28;20526;-72
2023/03/28 07:21:54;;;;;;;2.57;2.37;;;8.50;99.90;;;;;;5051359;28;20869;-72
2023/03/28 07:24:21;;;;;;;4.03;3.10;;;8.40;99.90;;;;;;5051119;28;20512;-71
2023/03/28 07:26:48;;;;;;;8.63;3.60;;;8.20;99.90;;;;;;5052022;28;20483;-72
2023/03/28 07:29:15;;;;;;;8.00;2.77;;;8.10;99.90;;;;;;5050980;28;20534;-72
2023/03/28 07:31:44;;;;;;;5.43;3.50;;;8.00;99.90;;;;;;5050954;28;20542;-72
2023/03/28 07:34:11;;;;;;;10.37;3.40;;;7.70;99.90;;;;;;5050866;28;20444;-72
2023/03/28 07:36:38;;;;;;;4.27;2.80;;;7.70;99.90;;;;;;5050833;28;20470;-72
2023/03/28 07:39:05;;;;;;;6.43;3.00;;;7.90;99.90;;;;;;5050590;28;20850;-72
2023/03/28 07:41:32;;;;;;;12.53;3.80;;;7.70;99.90;;;;;;5051052;28;20435;-72
2023/03/28 07:44:00;;;;;;;4.20;3.33;;;7.60;99.90;;;;;;5051169;28;20445;-72
2023/03/28 07:46:27;;;;;;;8.10;3.53;;;7.80;99.90;;;;;;5050694;28;20501;-71
2023/03/28 07:48:56;;;;;;;10.70;2.53;;;8.00;99.90;;;;;;5050699;28;20885;-72
2023/03/28 07:51:23;;;;;;;3.40;2.80;;;7.90;99.90;;;;;;5051203;28;20550;-72
2023/03/28 07:53:50;;;;;;;5.03;2.80;;;7.90;99.90;;;;;;5052784;28;20448;-71
2023/03/28 07:56:17;;;;;;;3.40;1.80;;;8.10;99.90;;;;;;5049827;28;20488;-71
2023/03/28 07:58:44;;;;;;;7.70;3.47;;;8.30;99.90;;;;;;5052156;28;20448;-72
2023/03/28 08:01:17;;;;;;;3.17;1.93;;;8.50;99.90;;;;;;5063602;28;20509;-71
2023/03/28 08:03:44;;;;;;;6.87;3.50;;;9.10;99.90;;;;;;5050564;28;20436;-71
2023/03/28 08:06:14;;;;;;;4.90;3.23;;;9.30;99.90;;;;;;5050392;28;20525;-72
2023/03/28 08:08:42;;;;;;;6.93;2.40;;;9.30;99.90;;;;;;5050764;28;20448;-72
2023/03/28 08:11:11;;;;;;;10.10;4.33;;;9.50;99.90;;;;;;5049991;28;20443;-72
2023/03/28 08:13:38;;;;;;;4.93;3.53;;;10.10;99.90;;;;;;5050142;28;20527;-72
2023/03/28 08:16:06;;;;;;;6.60;3.47;;;10.80;99.90;;;;;;5048749;28;20450;-72
2023/03/28 08:18:34;;;;;;;4.20;2.43;;;11.20;99.90;;;;;;5050106;28;20571;-72
2023/03/28 08:21:03;;;;;;;3.87;3.03;;;11.10;99.90;;;;;;5049997;28;20448;-72
2023/03/28 08:23:31;;;;;;;3.23;2.50;;;11.40;99.90;;;;;;5052355;28;20448;-72
2023/03/28 08:26:05;;;;;;;4.13;3.40;;;11.80;99.90;;;;;;5049834;28;20452;-72
2023/03/28 08:28:33;;;;;;;7.80;2.40;;;12.00;99.90;;;;;;5050118;28;20456;-72
2023/03/28 08:31:00;;;;;;;2.87;2.23;;;12.70;99.90;;;;;;5049992;28;20444;-72
2023/03/28 08:33:28;;;;;;;4.40;3.27;;;13.20;99.90;;;;;;5049861;28;20546;-72
2023/03/28 08:35:56;;;;;;;6.00;3.07;;;13.50;99.90;;;;;;5049622;28;20967;-72
2023/03/28 08:38:23;;;;;;;4.53;2.33;;;13.20;99.90;;;;;;5050065;28;20483;-72
2023/03/28 08:41:00;;;;;;;6.97;3.13;;;13.60;99.90;;;;;;5049825;28;20458;-71
2023/03/28 08:43:48;;;;;;;9.33;2.67;;;14.90;99.90;;;;;;5049905;28;20527;-71
2023/03/28 08:46:17;;;;;;;4.43;2.77;;;14.80;98.90;;;;;;5050887;28;20519;-71
2023/03/28 08:48:48;;;;;;;4.30;2.13;;;14.60;97.70;;;;;;5050695;28;20444;-71
2023/03/28 08:51:21;;;;;;;13.70;2.33;;;13.20;98.90;;;;;;5050626;28;20499;-71
2023/03/28 08:53:53;;;;;;;4.33;2.77;;;13.10;99.90;;;;;;5063915;28;20423;-71
2023/03/28 08:56:22;;;;;;;5.30;3.73;;;13.00;99.90;;;;;;5050192;28;20464;-71
2023/03/28 08:58:57;;;;;;;5.10;1.80;;;13.30;99.20;;;;;;5050018;28;20443;-71
2023/03/28 09:01:26;;;;;;;4.27;2.40;;;13.10;99.30;;;;;;5049537;28;20427;-72
2023/03/28 09:03:53;;;;;;;4.83;2.60;;;12.10;99.10;;;;;;5049813;28;20482;-71
2023/03/28 09:06:29;;;;;;;5.97;2.00;;;11.20;99.90;;;;;;5050142;28;20508;-71
2023/03/28 09:09:19;;;;;;;4.40;2.33;;;10.00;99.90;;;;;;5053422;28;20442;-71
2023/03/28 09:11:57;;;;;;;2.13;1.30;;;9.40;99.90;;;;;;5054000;28;20534;-71
2023/03/28 09:14:45;;;;;;;6.37;2.07;;;9.10;99.90;;;;;;5057242;28;20983;-71
2023/03/28 09:17:20;;;;;;;1.90;1.33;;;9.20;99.90;;;;;;5053051;28;20463;-70
2023/03/28 09:20:10;;;;;;;2.57;1.70;;;9.20;99.90;;;;;;5054490;28;20417;-71
2023/03/28 09:22:46;;;;;;;1.33;1.20;;;9.30;99.90;;;;;;5058803;28;20467;-72
2023/03/28 09:25:29;;;;;;;4.40;1.57;;;9.30;99.90;;;;;;5055873;28;20427;-70
2023/03/28 09:28:06;;;;;;;1.30;1.10;;;9.10;99.90;;;;;;5054232;28;20487;-71
2023/03/28 09:30:37;;;;;;;2.73;1.83;;;9.20;99.90;;;;;;5057587;28;20467;-71
2023/03/28 09:33:12;;;;;;;1.30;1.10;;;9.00;99.90;;;;;;5053754;28;20442;-71
2023/03/28 09:35:40;;;;;;;5.27;1.50;;;8.90;99.90;;;;;;5053345;28;20825;-71
2023/03/28 09:38:18;;;;;;;2.53;2.30;;;8.80;99.90;;;;;;5053823;28;20554;-71
2023/03/28 09:40:47;;;;;;;1.70;1.03;;;9.00;99.90;;;;;;5053939;28;20473;-71
2023/03/28 09:43:27;;;;;;;3.93;2.03;;;9.00;99.90;;;;;;5055367;28;20466;-72
2023/03/28 09:45:59;;;;;;;1.10;0.80;;;8.80;99.90;;;;;;5069843;28;20426;-71
2023/03/28 09:48:28;;;;;;;3.20;1.13;;;8.90;99.90;;;;;;5053607;28;20460;-71
2023/03/28 09:50:57;;;;;;;3.47;1.60;;;8.80;99.90;;;;;;5053846;28;20836;-71
2023/03/28 09:53:29;;;;;;;2.27;1.60;;;8.60;99.90;;;;;;5053400;28;20450;-71
2023/03/28 09:56:00;;;;;;;2.80;1.10;;;8.50;99.90;;;;;;5053211;28;20428;-71
2023/03/28 09:58:29;;;;;;;2.40;2.20;;;8.50;99.90;;;;;;5052547;28;20900;-71
2023/03/28 10:00:56;;;;;;;3.30;1.90;;;8.60;99.90;;;;;;5058533;28;20435;-72
2023/03/28 10:03:31;;;;;;;1.80;1.10;;;8.40;99.90;;;;;;5053517;28;21038;-71
2023/03/28 10:05:59;;;;;;;2.53;1.50;;;8.40;99.90;;;;;;5052574;28;20427;-70
2023/03/28 10:08:31;;;;;;;2.10;1.63;;;8.50;99.90;;;;;;5052800;28;20562;-71
2023/03/28 10:11:03;;;;;;;5.23;1.67;;;8.80;99.90;;;;;;5052551;28;20474;-72
2023/03/28 10:13:39;;;;;;;3.30;1.30;;;8.70;99.90;;;;;;5052029;28;20878;-71
2023/03/28 10:16:07;;;;;;;4.00;2.20;;;8.60;99.90;;;;;;5052195;28;20514;-71
2023/03/28 10:18:35;;;;;;;2.17;1.97;;;8.80;99.90;;;;;;5051276;28;20472;-71
2023/03/28 10:21:13;;;;;;;6.00;1.60;;;9.40;99.90;;;;;;5051918;28;20482;-72
2023/03/28 10:23:44;;;;;;;6.50;2.00;;;10.10;99.90;;;;;;5051901;28;20491;-72
2023/03/28 10:26:14;;;;;;;2.50;1.67;;;10.30;99.90;;;;;;5052155;28;20934;-72
2023/03/28 10:28:43;;;;;;;2.30;1.10;;;10.50;99.90;;;;;;5051804;28;20477;-71
2023/03/28 10:31:21;;;;;;;3.07;1.10;;;10.70;99.90;;;;;;5052675;28;20534;-71
2023/03/28 10:33:52;;;;;;;1.30;0.93;;;11.00;97.00;;;;;;5053025;28;20431;-71
2023/03/28 10:36:28;;;;;;;3.73;1.17;;;11.10;97.00;;;;;;5053190;28;20545;-71
2023/03/28 10:38:55;;;;;;;2.37;1.20;;;11.00;96.20;;;;;;5054404;28;20420;-71
2023/03/28 10:41:24;;;;;;;4.80;1.50;;;10.90;96.30;;;;;;5062265;28;20444;-71
2023/03/28 10:43:52;;;;;;;1.63;1.30;;;10.90;96.70;;;;;;5053651;28;20815;-72
2023/03/28 10:46:23;;;;;;;2.87;1.10;;;11.20;95.70;;;;;;5053316;28;20467;-71
2023/03/28 10:48:53;;;;;;;1.80;1.10;;;11.20;93.40;;;;;;5053803;28;20936;-72
2023/03/28 10:51:23;;;;;;;1.70;1.10;;;10.70;94.30;;;;;;5058718;28;20447;-71
2023/03/28 10:54:15;;;;;;;1.87;0.93;;;10.40;92.90;;;;;;5053795;28;20931;-72
2023/03/28 10:56:51;;;;;;;3.20;1.10;;;10.60;91.80;;;;;;5052333;28;20514;-71
2023/03/28 10:59:35;;;;;;;2.90;1.00;;;10.70;92.30;;;;;;5053788;28;20502;-70
2023/03/28 11:02:23;;;;;;;4.03;1.37;;;10.80;90.80;;;;;;5051804;28;20825;-71
2023/03/28 11:04:56;;;;;;;1.93;1.00;;;11.10;91.60;;;;;;5053695;28;20463;-71
2023/03/28 11:07:32;;;;;;;1.90;1.00;;;11.10;92.20;;;;;;5053213;28;20952;-71
2023/03/28 11:10:11;;;;;;;2.90;1.20;;;12.40;90.60;;;;;;5053100;28;20420;-71
2023/03/28 11:12:55;;;;;;;1.17;0.70;;;13.90;90.70;;;;;;5051624;28;20427;-71
2023/03/28 11:15:29;;;;;;;1.37;1.27;;;14.40;82.00;;;;;;5051519;28;20448;-71
2023/03/28 11:18:14;;;;;;;3.53;1.40;;;15.40;82.00;;;;;;5051469;28;21056;-71
2023/03/28 11:20:53;;;;;;;6.03;1.53;;;16.10;77.50;;;;;;5052378;28;20858;-71
2023/03/28 11:23:38;;;;;;;3.20;1.70;;;15.50;79.20;;;;;;5052879;28;20515;-70
2023/03/28 11:26:09;;;;;;;6.60;1.80;;;14.40;75.00;;;;;;5050595;28;20984;-71
2023/03/28 11:29:09;;;;;;;7.40;1.50;;;14.20;79.80;;;;;;5050965;28;20475;-71
2023/03/28 11:31:44;;;;;;;3.73;0.90;;;14.70;77.10;;;;;;5052099;28;20509;-71
2023/03/28 11:34:20;;;;;;;2.80;1.20;;;14.70;76.10;;;;;;5059070;28;20443;-71
2023/03/28 11:36:53;;;;;;;3.57;1.60;;;14.90;78.10;;;;;;5056580;28;20542;-72
2023/03/28 11:39:31;;;;;;;2.60;1.50;;;15.00;74.30;;;;;;5050616;28;20588;-71
2023/03/28 11:42:01;;;;;;;3.83;1.70;;;14.80;72.50;;;;;;5050663;28;20451;-71
2023/03/28 11:44:31;;;;;;;1.53;1.43;;;15.00;71.40;;;;;;5051147;28;20531;-71
2023/03/28 11:47:11;;;;;;;1.60;1.17;;;15.00;70.40;;;;;;5050940;28;20487;-71
2023/03/28 11:49:42;;;;;;;3.10;1.37;;;14.30;73.50;;;;;;5051403;28;20427;-71
2023/03/28 11:52:15;;;;;;;1.10;0.80;;;14.60;74.40;;;;;;5051498;28;20550;-71
2023/03/28 11:54:47;;;;;;;2.13;1.40;;;15.50;69.50;;;;;;5051935;28;20435;-71
2023/03/28 11:57:20;;;;;;;1.40;1.07;;;15.40;68.30;;;;;;5050730;28;20460;-71
2023/03/28 11:59:52;;;;;;;1.93;1.30;;;15.20;69.80;;;;;;5050700;28;20435;-71
2023/03/28 12:02:41;;;;;;;2.70;1.40;;;15.60;71.00;;;;;;5053840;28;20527;-71
2023/03/28 12:05:18;;;;;;;6.30;1.80;;;15.50;67.30;;;;;;5057902;28;20554;-72
2023/03/28 12:07:52;;;;;;;3.13;1.77;;;15.60;70.70;;;;;;5050623;28;20552;-71
2023/03/28 12:10:23;;;;;;;3.10;2.03;;;15.50;67.90;;;;;;5050486;28;20486;-72
2023/03/28 12:13:03;;;;;;;3.00;1.83;;;15.70;68.70;;;;;;5050298;28;20606;-71
2023/03/28 12:15:37;;;;;;;4.60;1.70;;;15.50;66.10;;;;;;5051161;28;20467;-72
2023/03/28 12:18:10;;;;;;;3.30;1.20;;;15.10;68.50;;;;;;5050997;28;20456;-72
2023/03/28 12:20:43;;;;;;;6.13;1.77;;;15.60;68.30;;;;;;5051449;28;20436;-72
2023/03/28 12:23:19;;;;;;;6.50;1.70;;;16.00;68.50;;;;;;5052058;28;20550;-71
2023/03/28 12:25:54;;;;;;;1.70;1.30;;;14.60;66.00;;;;;;5050377;28;20454;-71
2023/03/28 12:28:27;;;;;;;11.80;1.60;;;13.90;67.00;;;;;;5056736;28;20449;-72
2023/03/28 12:31:04;;;;;;;3.60;2.23;;;14.00;67.50;;;;;;5056989;28;20523;-72
2023/03/28 12:33:50;;;;;;;12.53;2.03;;;14.50;67.20;;;;;;5050869;28;20443;-71
2023/03/28 12:36:24;;;;;;;1.77;1.30;;;15.20;68.40;;;;;;5058038;28;20459;-71
2023/03/28 12:39:00;;;;;;;2.00;1.37;;;15.60;64.50;;;;;;5051836;28;20420;-72
2023/03/28 12:41:32;;;;;;;3.00;1.93;;;14.60;64.30;;;;;;5031653;28;20459;-72
2023/03/28 12:44:03;;;;;;;2.33;1.53;;;14.20;68.00;;;;;;5054336;28;20526;-71
2023/03/28 12:46:36;;;;;;;2.47;1.40;;;13.80;67.10;;;;;;5055987;28;20467;-72
2023/03/28 12:49:08;;;;;;;5.83;1.50;;;13.70;69.40;;;;;;5053860;28;21036;-72
2023/03/28 12:51:38;;;;;;;1.03;0.77;;;14.20;69.40;;;;;;5054078;28;20439;-71
2023/03/28 12:54:08;;;;;;;2.43;1.50;;;13.90;66.50;;;;;;5053759;28;20530;-71
2023/03/28 12:56:35;;;;;;;3.70;3.40;;;13.40;68.00;;;;;;5053468;28;21026;-71
2023/03/28 12:59:35;;;;;;;2.53;1.03;;;13.60;66.20;;;;;;5053709;28;20439;-71
2023/03/28 13:02:09;;;;;;;10.33;1.57;;;13.90;67.40;;;;;;5053934;28;20463;-72
2023/03/28 13:04:48;;;;;;;1.80;0.90;;;14.30;63.90;;;;;;5054809;28;20436;-72
2023/03/28 13:07:20;;;;;;;1.60;1.40;;;14.10;64.10;;;;;;5054751;28;20532;-71
2023/03/28 13:10:00;;;;;;;1.60;1.30;;;14.10;65.50;;;;;;5054230;28;20455;-72
2023/03/28 13:12:34;;;;;;;1.87;1.20;;;14.40;63.60;;;;;;5054925;28;20470;-71
2023/03/28 13:15:07;;;;;;;2.30;1.87;;;14.70;62.80;;;;;;5056517;28;20428;-70